CYPHCYNM

Guest
Details From CYPH - Inukjuak
To CYNM - MATAGAMI
Flight Number -
Tags generated
Created
Modified
Stats Distance 550 nm / 1,018 km
Max Altitude 35,000 ft / 10,668 m
Waypoints 7
Social Downloads 0
Likes 0
Share VATSIM

Download

Looking for another format? Having issues loading an existing format? Contact us
Advertisement - Login to hide

Notes

Basic altitude profile: - Ascent Rate: 2500ft/min - Ascent Speed: 250kts - Cruise Altitude: 35000ft - Cruise Speed: 420kts - Descent Rate: 1500ft/min - Descent Speed: 250kts Options: - Use NATs: yes - Use PACOTS: yes - Use low airways: yes - Use high airways: yes

Route

CYPH PH RR13 GW J567 NM CYNM

ID Type Via Altitude Latitude Longitude Leg Dist Tot Dist Heading (true) Name
O CYPH APT - 0 ft / 0 m 58.47181˚ -78.07722˚ - 0 nm - Inukjuak
PH NDB - 0 ft / 0 m 58.46778˚ -78.07333˚ 0 nm 0 nm 153° / 153° INUKJUAK NDB
YMU NDB RR13 (AWY-LO) 17,000 ft / 5,182 m 56.53694˚ -76.52306˚ 126 nm 126 nm 156° / 157° UMIUJAQ NDB
GW NDB RR13 (AWY-LO) 18,000 ft / 5,486 m 55.28458˚ -77.75142˚ 85 nm 212 nm 209° / 208° JARPIK NDB
YGL VOR J567 (AWY-HI) 35,000 ft / 10,668 m 53.62550˚ -77.71622˚ 99 nm 312 nm 179° / 179° LA GRANDE RIVIERE VOR-DME
NM NDB J567 (AWY-HI) 18,000 ft / 5,486 m 49.72394˚ -77.74156˚ 234 nm 546 nm 180° / 180° MATAGAMI NDB
O CYNM APT - 0 ft / 0 m 49.76169˚ -77.80250˚ 3 nm 549 nm 314° / 314° MATAGAMI

Altitude Profile

Advertisement - Login to hide

Weather


0- 5 10 15 20 25 30 35+ Temperature / ° C

Clouds and Precipitation
Forecast for 2017-12-12 06:00 UTC. Updated 2 hours ago

Ground ~20,000 ft ~40,000 ft Winds

CYPH

Details ICAO CYPH (YPH)
Name Inukjuak
Region Canada
Timezone America/Montreal (UTC-5.0)
Stats Elevation 78 ft / 24 m (AMSL)
Location 58.471815° -78.077222°
Runways 1
Magnetic Variation 18.125° W

METAR

CYPH 120322Z AUTO 28016KT 1SM -SN BKN013 OVC021 M11/M12 A2972 RMK SLP068

Decode

TAF

TAF CYPH 112338Z 1200/1212 VRB03KT P6SM -SN BKN040 TEMPO 1200/1203 1SM -SHSN BR VV006 FM120300 26010KT 6SM -SN OVC030 TEMPO 1203/1212 2SM -SHSN BKN020 RMK FCST BASED ON AUTO OBS. NXT FCST BY 120600Z

Decode

Departure Runways

ID Width Length Bearing (true) Bearing (mag) Surface Threshold Offset Overrun Length
23 131 ft / 40 m 3,915 ft / 1,193 m 46.70° 64.83° Gravel 0 ft / 0 m 0 ft / 0 m
5 131 ft / 40 m 3,915 ft / 1,193 m 226.71° 244.84° Gravel 0 ft / 0 m 0 ft / 0 m

CYNM

Details ICAO CYNM (YNM)
Name MATAGAMI
Region Canada
Timezone America/Montreal (UTC-5.0)
Stats Elevation 918 ft / 280 m (AMSL)
Location 49.761691° -77.802504°
Runways 1
Magnetic Variation 13.489° W

METAR

CYNM 120300Z AUTO 15006KT 9SM -SN OVC100 M18/M20 A2984 RMK ICG INTMT SLP138

Decode

TAF

Not found

Destination Runways

ID Width Length Bearing (true) Bearing (mag) Surface Threshold Offset Overrun Length
15 100 ft / 30 m 4,993 ft / 1,522 m 134.24° 147.73° Asphalt 0 ft / 0 m 0 ft / 0 m
33 100 ft / 30 m 4,993 ft / 1,522 m 314.25° 327.74° Asphalt 0 ft / 0 m 0 ft / 0 m